KLM213 EGKK-EDDF
Flight info
| Callsign | KLM213 |
|---|---|
| Flight time | N/A |
| Altitude | 35000 |
| Route | DVR UL9 KONAN UL607 KOK DCT REMBA UL607 SPI T180 NIVNU/N0444F230 T847 IMCOM IMCOM1B |
| Aircraft | B77W/H-SDE1E2E3FGHIJ2J3J4J5M1RWXY/LB1D1 |
Departure
| Time | 2026-05-06 15:17 |
|---|---|
| Airport | London Gatwick Airport (EGKK) |
Arrival
| Time | N/A |
|---|---|
| Airport | Frankfurt Main Airport (EDDF) |
| Time | Latitude | Longitude | Altitude | Speed | Heading |
|---|---|---|---|---|---|
| 2026-05-06 14:46 | 51.15856 | -0.17415 | 210 ft | 0 kts | 348° |
| 2026-05-06 15:00 | 51.15843 | -0.17410 | 198 ft | 3 kts | 347° |
| 2026-05-06 15:00 | 51.15823 | -0.17403 | 189 ft | 3 kts | 346° |
| 2026-05-06 15:00 | 51.15804 | -0.17395 | 212 ft | 3 kts | 340° |
| 2026-05-06 15:00 | 51.15789 | -0.17384 | 221 ft | 2 kts | 311° |
| 2026-05-06 15:01 | 51.15784 | -0.17371 | 222 ft | 1 kts | 276° |
| 2026-05-06 15:01 | 51.15783 | -0.17357 | 221 ft | 1 kts | 262° |
| 2026-05-06 15:01 | 51.15785 | -0.17344 | 219 ft | 1 kts | 258° |
| 2026-05-06 15:01 | 51.15786 | -0.17331 | 218 ft | 0 kts | 257° |
| 2026-05-06 15:07 | 51.15786 | -0.17332 | 210 ft | 1 kts | 257° |
| 2026-05-06 15:07 | 51.15778 | -0.17390 | 213 ft | 10 kts | 257° |
| 2026-05-06 15:08 | 51.15757 | -0.17536 | 214 ft | 16 kts | 258° |
| 2026-05-06 15:08 | 51.15734 | -0.17705 | 218 ft | 16 kts | 257° |
| 2026-05-06 15:08 | 51.15711 | -0.17874 | 212 ft | 16 kts | 257° |
| 2026-05-06 15:08 | 51.15688 | -0.18043 | 218 ft | 16 kts | 257° |
| 2026-05-06 15:09 | 51.15664 | -0.18212 | 217 ft | 16 kts | 257° |
| 2026-05-06 15:09 | 51.15641 | -0.18381 | 210 ft | 16 kts | 258° |
| 2026-05-06 15:09 | 51.15619 | -0.18550 | 218 ft | 16 kts | 258° |
| 2026-05-06 15:09 | 51.15596 | -0.18715 | 212 ft | 12 kts | 258° |
| 2026-05-06 15:10 | 51.15556 | -0.18821 | 217 ft | 12 kts | 207° |
| 2026-05-06 15:10 | 51.15478 | -0.18808 | 216 ft | 12 kts | 165° |
| 2026-05-06 15:10 | 51.15398 | -0.18779 | 218 ft | 12 kts | 168° |
| 2026-05-06 15:10 | 51.15318 | -0.18752 | 218 ft | 12 kts | 168° |
| 2026-05-06 15:11 | 51.15239 | -0.18725 | 218 ft | 12 kts | 167° |
| 2026-05-06 15:11 | 51.15168 | -0.18707 | 217 ft | 9 kts | 188° |
| 2026-05-06 15:11 | 51.15125 | -0.18778 | 219 ft | 9 kts | 250° |
| 2026-05-06 15:11 | 51.15111 | -0.18879 | 219 ft | 10 kts | 258° |
| 2026-05-06 15:12 | 51.15094 | -0.19006 | 217 ft | 14 kts | 257° |
| 2026-05-06 15:12 | 51.15068 | -0.19194 | 215 ft | 20 kts | 258° |
| 2026-05-06 15:12 | 51.15037 | -0.19429 | 216 ft | 22 kts | 257° |
| 2026-05-06 15:12 | 51.15002 | -0.19670 | 217 ft | 22 kts | 257° |
| 2026-05-06 15:13 | 51.14969 | -0.19911 | 217 ft | 22 kts | 258° |
| 2026-05-06 15:13 | 51.14939 | -0.20130 | 217 ft | 20 kts | 257° |
| 2026-05-06 15:13 | 51.14909 | -0.20345 | 218 ft | 20 kts | 258° |
| 2026-05-06 15:13 | 51.14880 | -0.20560 | 216 ft | 20 kts | 257° |
| 2026-05-06 15:14 | 51.14850 | -0.20772 | 214 ft | 20 kts | 258° |
| 2026-05-06 15:14 | 51.14820 | -0.20990 | 215 ft | 20 kts | 257° |
| 2026-05-06 15:14 | 51.14784 | -0.21199 | 219 ft | 20 kts | 253° |
| 2026-05-06 15:15 | 51.14626 | -0.21337 | 216 ft | 0 kts | 165° |
| 2026-05-06 15:15 | 51.14620 | -0.21334 | 218 ft | 3 kts | 165° |
| 2026-05-06 15:16 | 51.14579 | -0.21312 | 215 ft | 11 kts | 156° |
| 2026-05-06 15:16 | 51.14522 | -0.21176 | 219 ft | 20 kts | 92° |
| 2026-05-06 15:16 | 51.14562 | -0.20864 | 213 ft | 52 kts | 77° |
| 2026-05-06 15:16 | 51.14697 | -0.19900 | 219 ft | 124 kts | 77° |
| 2026-05-06 15:17 | 51.14924 | -0.18269 | 242 ft | 175 kts | 77° |
| 2026-05-06 15:17 | 51.15162 | -0.16341 | 805 ft | 179 kts | 74° |
| 2026-05-06 15:17 | 51.15443 | -0.14375 | 1631 ft | 180 kts | 73° |
| 2026-05-06 15:17 | 51.15720 | -0.12423 | 2294 ft | 188 kts | 74° |
| 2026-05-06 15:18 | 51.16018 | -0.10286 | 2529 ft | 211 kts | 75° |
| 2026-05-06 15:18 | 51.16357 | -0.07845 | 2758 ft | 241 kts | 75° |
| 2026-05-06 15:18 | 51.16724 | -0.05158 | 3310 ft | 254 kts | 76° |
| 2026-05-06 15:18 | 51.16967 | -0.02345 | 4022 ft | 261 kts | 86° |
| 2026-05-06 15:19 | 51.16916 | 0.00612 | 4852 ft | 265 kts | 91° |
| 2026-05-06 15:19 | 51.16820 | 0.03510 | 5630 ft | 266 kts | 91° |
| 2026-05-06 15:19 | 51.16739 | 0.06465 | 6013 ft | 268 kts | 90° |
| 2026-05-06 15:19 | 51.16671 | 0.09463 | 5999 ft | 273 kts | 90° |
| 2026-05-06 15:20 | 51.16610 | 0.12476 | 6036 ft | 270 kts | 90° |
| 2026-05-06 15:20 | 51.16551 | 0.15414 | 6437 ft | 263 kts | 89° |
| 2026-05-06 15:20 | 51.16544 | 0.18368 | 6958 ft | 271 kts | 88° |
| 2026-05-06 15:20 | 51.16559 | 0.21412 | 7482 ft | 277 kts | 88° |
| 2026-05-06 15:21 | 51.16572 | 0.24492 | 7990 ft | 280 kts | 88° |
| 2026-05-06 15:21 | 51.16579 | 0.27612 | 8516 ft | 282 kts | 88° |
| 2026-05-06 15:21 | 51.16584 | 0.30757 | 9038 ft | 286 kts | 88° |
| 2026-05-06 15:21 | 51.16588 | 0.33936 | 9564 ft | 289 kts | 88° |
| 2026-05-06 15:22 | 51.16592 | 0.37148 | 10100 ft | 292 kts | 88° |
| 2026-05-06 15:22 | 51.16596 | 0.40404 | 10587 ft | 295 kts | 88° |
| 2026-05-06 15:22 | 51.16596 | 0.43688 | 11091 ft | 298 kts | 88° |
| 2026-05-06 15:22 | 51.16595 | 0.47003 | 11592 ft | 301 kts | 88° |
| 2026-05-06 15:23 | 51.16594 | 0.50354 | 12099 ft | 303 kts | 88° |
| 2026-05-06 15:23 | 51.16594 | 0.53714 | 12613 ft | 305 kts | 88° |
| 2026-05-06 15:23 | 51.16593 | 0.57118 | 13157 ft | 313 kts | 89° |
| 2026-05-06 15:23 | 51.16592 | 0.60656 | 13736 ft | 327 kts | 89° |
| 2026-05-06 15:24 | 51.16590 | 0.64359 | 14251 ft | 341 kts | 89° |
| 2026-05-06 15:24 | 51.16586 | 0.68222 | 14762 ft | 356 kts | 89° |
| 2026-05-06 15:24 | 51.16580 | 0.72236 | 15282 ft | 370 kts | 89° |
| 2026-05-06 15:24 | 51.16571 | 0.76405 | 15812 ft | 383 kts | 90° |
| 2026-05-06 15:25 | 51.16562 | 0.80720 | 16313 ft | 396 kts | 90° |
| 2026-05-06 15:25 | 51.16550 | 0.85164 | 16855 ft | 406 kts | 90° |
| 2026-05-06 15:25 | 51.16536 | 0.89709 | 17402 ft | 409 kts | 90° |
| 2026-05-06 15:25 | 51.16520 | 0.94261 | 17944 ft | 416 kts | 90° |
| 2026-05-06 15:26 | 51.16502 | 0.98893 | 18469 ft | 419 kts | 90° |
| 2026-05-06 15:26 | 51.16483 | 1.03559 | 18963 ft | 422 kts | 90° |
| 2026-05-06 15:26 | 51.16462 | 1.08266 | 19452 ft | 427 kts | 90° |
| 2026-05-06 15:26 | 51.16439 | 1.12967 | 20144 ft | 432 kts | 90° |
| 2026-05-06 15:27 | 51.16413 | 1.17839 | 20829 ft | 437 kts | 91° |
| 2026-05-06 15:27 | 51.16385 | 1.22642 | 21466 ft | 443 kts | 91° |
| 2026-05-06 15:27 | 51.16356 | 1.27580 | 22052 ft | 449 kts | 91° |
| 2026-05-06 15:27 | 51.16324 | 1.32584 | 22696 ft | 454 kts | 91° |
| 2026-05-06 15:28 | 51.16253 | 1.37623 | 22962 ft | 457 kts | 94° |
| 2026-05-06 15:28 | 51.16042 | 1.42682 | 22956 ft | 456 kts | 95° |
| 2026-05-06 15:28 | 51.15787 | 1.47731 | 23115 ft | 458 kts | 95° |